Holdrege, NE

12:25 AM CDT on August 20, 2017 (GMT -0500)
Brewster

Weather History for KHDE - March, 2013

Change the Weather History Date:

Wednesday, March 6, 2013

  Actual Average Record
Temperature  
Mean Temperature 28 °F -  
Max Temperature 40 °F 49 °F 84 °F (1972)
Min Temperature 16 °F 23 °F -3 °F (1989)
Degree Days  
Heating Degree Days 37    
Moisture  
Dew Point 20 °F    
Average Humidity 71    
Maximum Humidity 88    
Minimum Humidity 50    
Precipitation  
Precipitation 0.00 in - - ()
Sea Level Pressure  
Sea Level Pressure 30.22 in    
Wind  
Wind Speed 9 mph (SE)    
Max Wind Speed 18 mph    
Max Gust Speed 24 mph    
Visibility 10 miles    
Events      
Averages and records for this station are not official NWS values.
T = Trace of Precipitation, MM = Missing Value Source: NWS Daily Summary

Daily Weather History Graph

Daily Weather History Graph

Search for Another Location

Airport or City:

Trip Planner

Search our weather history database for the weather conditions in past years. The results will help you decide how hot, cold, wet, or windy it might be!

Date:

Astronomy

Mar. 06, 2013 Rise Set
Actual Time 7:02 AM CST 6:34 PM CST
Civil Twilight 6:35 AM CST 7:02 PM CST
Nautical Twilight 6:04 AM CST 7:33 PM CST
Astronomical Twilight 5:32 AM CST 8:05 PM CST
Moon 3:14 AM CST (3/6) 1:17 PM CST (3/6)
Length of Visible Light 12h 26m
Length of Day
11h 31m
Waning Crescent, 29% of the Moon is Illuminated
Mar 6
Waning Crescent
Mar 11
New
Mar 19
First Quarter
Mar 27
Full
Apr 2
Last Quarter

Hourly Weather History & Observations

Time (CST) Temp. Windchill Dew Point Humidity Pressure Visibility Wind Dir Wind Speed Gust Speed Precip Events Conditions
12:15 AM 23.9 °F 16.8 °F 16.7 °F 74% 30.34 in 10.0 mi NE 5.8 mph - N/A   Clear
12:35 AM 23.0 °F 15.8 °F 17.2 °F 79% 30.34 in 10.0 mi ENE 5.8 mph - N/A   Clear
12:55 AM 23.0 °F 17.0 °F 16.9 °F 77% 30.34 in 10.0 mi ENE 4.6 mph - N/A   Clear
1:15 AM 22.8 °F 18.2 °F 17.1 °F 79% 30.34 in 10.0 mi East 3.5 mph - N/A   Clear
1:35 AM 22.1 °F - 16.5 °F 79% 30.34 in 10.0 mi Calm Calm - N/A   Clear
1:55 AM 22.1 °F 15.9 °F 16.7 °F 80% 30.34 in 10.0 mi South 4.6 mph - N/A   Clear
2:15 AM 21.9 °F 17.2 °F 16.2 °F 78% 30.35 in 10.0 mi SSE 3.5 mph - N/A   Clear
2:35 AM 21.0 °F 14.6 °F 16.3 °F 82% 30.34 in 10.0 mi SSE 4.6 mph - N/A   Clear
2:55 AM 19.4 °F 7.9 °F 15.3 °F 84% 30.32 in 10.0 mi East 10.4 mph - N/A   Clear
3:15 AM 20.8 °F 16.0 °F 16.3 °F 83% 30.33 in 10.0 mi SSE 3.5 mph - N/A   Clear
3:35 AM 20.8 °F 16.0 °F 15.8 °F 81% 30.32 in 10.0 mi SSE 3.5 mph - N/A   Clear
3:55 AM 20.5 °F 14.0 °F 16.0 °F 83% 30.32 in 10.0 mi SE 4.6 mph - N/A   Clear
4:15 AM 20.5 °F 14.0 °F 15.8 °F 82% 30.32 in 10.0 mi SSE 4.6 mph - N/A   Clear
4:35 AM 19.4 °F 12.8 °F 15.3 °F 84% 30.32 in 10.0 mi SSE 4.6 mph - N/A   Clear
4:55 AM 17.6 °F 9.3 °F 13.6 °F 84% 30.31 in 10.0 mi SE 5.8 mph - N/A   Clear
5:15 AM 17.4 °F 9.1 °F 13.8 °F 86% 30.31 in 10.0 mi ESE 5.8 mph - N/A   Clear
5:35 AM 18.3 °F 10.2 °F 15.3 °F 88% 30.32 in 10.0 mi ESE 5.8 mph - N/A   Clear
5:55 AM 18.3 °F 11.5 °F 14.9 °F 86% 30.32 in 10.0 mi SE 4.6 mph - N/A   Clear
6:15 AM 16.7 °F 8.3 °F 13.5 °F 87% 30.31 in 10.0 mi ESE 5.8 mph - N/A   Clear
6:35 AM 17.2 °F 7.8 °F 14.0 °F 87% 30.31 in 10.0 mi SE 6.9 mph - N/A   Clear
6:55 AM 18.5 °F 8.4 °F 14.9 °F 86% 30.31 in 10.0 mi SE 8.1 mph - N/A   Clear
7:15 AM 18.5 °F 9.3 °F 14.9 °F 86% 30.32 in 10.0 mi SE 6.9 mph - N/A   Clear
7:35 AM 19.4 °F 10.4 °F 15.8 °F 86% 30.31 in 10.0 mi SE 6.9 mph - N/A   Clear
7:55 AM 20.7 °F 11.9 °F 16.9 °F 85% 30.31 in 10.0 mi SE 6.9 mph - N/A   Clear
8:15 AM 22.1 °F 12.8 °F 18.0 °F 84% 30.32 in 10.0 mi SE 8.1 mph - N/A   Clear
8:35 AM 23.0 °F 12.4 °F 18.3 °F 82% 30.32 in 10.0 mi SSE 10.4 mph - N/A   Clear
8:55 AM 23.9 °F 12.9 °F 18.7 °F 80% 30.32 in 10.0 mi SE 11.5 mph - N/A   Clear
9:15 AM 24.8 °F 14.6 °F 19.4 °F 80% 30.33 in 10.0 mi SE 10.4 mph - N/A   Clear
9:35 AM 25.7 °F 16.4 °F 19.8 °F 78% 30.32 in 10.0 mi SE 9.2 mph - N/A   Clear
9:55 AM 26.4 °F 16.0 °F 20.3 °F 78% 30.31 in 10.0 mi SSE 11.5 mph - N/A   Clear
10:15 AM 27.5 °F 17.4 °F 20.7 °F 75% 30.31 in 10.0 mi SE 11.5 mph - N/A   Clear
10:35 AM 28.8 °F 19.0 °F 20.3 °F 71% 30.30 in 10.0 mi SE 11.5 mph - N/A   Clear
10:55 AM 29.3 °F 19.6 °F 20.7 °F 70% 30.30 in 10.0 mi SSE 11.5 mph - N/A   Clear
11:15 AM 30.9 °F 22.2 °F 21.2 °F 67% 30.29 in 10.0 mi SSE 10.4 mph 16.1 mph N/A   Clear
11:35 AM 31.5 °F 22.9 °F 21.6 °F 67% 30.28 in 10.0 mi SSE 10.4 mph - N/A   Clear
11:55 AM 32.5 °F 23.2 °F 21.7 °F 64% 30.27 in 10.0 mi SSE 12.7 mph - N/A   Clear
12:15 PM 34.0 °F 26.0 °F 21.6 °F 60% 30.26 in 10.0 mi SE 10.4 mph - N/A   Clear
12:35 PM 34.9 °F 26.6 °F 21.7 °F 59% 30.24 in 10.0 mi SE 11.5 mph 17.3 mph N/A   Clear
12:55 PM 36.1 °F 27.3 °F 22.1 °F 57% 30.22 in 10.0 mi SE 13.8 mph 20.7 mph N/A   Clear
1:15 PM 37.4 °F 27.8 °F 22.3 °F 54% 30.20 in 10.0 mi SE 17.3 mph 23.0 mph N/A   Clear
1:35 PM 38.3 °F 29.0 °F 22.5 °F 53% 30.18 in 10.0 mi SE 17.3 mph - N/A   Clear
1:55 PM 39.2 °F 29.8 °F 23.2 °F 53% 30.17 in 10.0 mi SE 18.4 mph 21.9 mph N/A   Clear
2:15 PM 40.1 °F 32.0 °F 23.4 °F 51% 30.17 in 10.0 mi SSE 15.0 mph - N/A   Clear
2:35 PM 39.4 °F 30.4 °F 22.5 °F 51% 30.16 in 10.0 mi SSE 17.3 mph 23.0 mph N/A   Clear
2:55 PM 40.3 °F 31.9 °F 23.2 °F 51% 30.15 in 10.0 mi SSE 16.1 mph 20.7 mph N/A   Clear
3:15 PM 40.8 °F 32.0 °F 23.4 °F 50% 30.14 in 10.0 mi South 18.4 mph 21.9 mph N/A   Clear
3:35 PM 40.5 °F 32.1 °F 23.5 °F 51% 30.14 in 10.0 mi SSE 16.1 mph 21.9 mph N/A   Clear
3:55 PM 40.6 °F 31.7 °F 23.7 °F 51% 30.13 in 10.0 mi SSE 18.4 mph - N/A   Clear
4:15 PM 40.5 °F 31.5 °F 23.9 °F 52% 30.13 in 10.0 mi SSE 18.4 mph 24.2 mph N/A   Clear
4:35 PM 40.5 °F 31.8 °F 24.4 °F 53% 30.12 in 10.0 mi SSE 17.3 mph - N/A   Clear
4:55 PM 40.5 °F 32.1 °F 24.8 °F 54% 30.10 in 10.0 mi SSE 16.1 mph - N/A   Clear
5:15 PM 40.3 °F 31.6 °F 25.3 °F 55% 30.10 in 10.0 mi SE 17.3 mph 20.7 mph N/A   Clear
5:35 PM 40.1 °F 31.3 °F 25.7 °F 56% 30.09 in 10.0 mi SSE 17.3 mph - N/A   Clear
5:55 PM 39.2 °F 30.8 °F 25.7 °F 58% 30.08 in 10.0 mi SE 15.0 mph - N/A   Clear
6:15 PM 38.3 °F 30.5 °F 25.0 °F 59% 30.08 in 10.0 mi SE 12.7 mph - N/A   Clear
6:35 PM 36.9 °F 28.2 °F 24.8 °F 62% 30.07 in 10.0 mi SE 13.8 mph - N/A   Clear
6:55 PM 36.5 °F 28.2 °F 24.6 °F 62% 30.08 in 10.0 mi SE 12.7 mph - N/A   Clear
7:15 PM 35.6 °F 27.5 °F 24.6 °F 64% 30.08 in 10.0 mi SE 11.5 mph - N/A   Clear
7:35 PM 34.5 °F 25.7 °F 24.4 °F 67% 30.07 in 10.0 mi SE 12.7 mph - N/A   Clear
7:55 PM 34.2 °F 24.8 °F 23.7 °F 66% 30.07 in 10.0 mi SE 13.8 mph - N/A   Clear
8:15 PM 33.8 °F 23.9 °F 23.5 °F 66% 30.06 in 10.0 mi SE 15.0 mph - N/A   Clear
8:35 PM 32.9 °F 22.8 °F 23.5 °F 68% 30.06 in 10.0 mi SE 15.0 mph - N/A   Clear
8:55 PM 32.4 °F 23.0 °F 23.7 °F 70% 30.07 in 10.0 mi SE 12.7 mph - N/A   Clear
9:35 PM 32.0 °F 22.5 °F 23.9 °F 72% 30.07 in 10.0 mi SE 12.7 mph - N/A   Clear
9:55 PM 32.0 °F 22.1 °F 24.4 °F 74% 30.06 in 10.0 mi SE 13.8 mph - N/A   Clear
10:15 PM 32.0 °F 23.0 °F 24.8 °F 75% 30.07 in 10.0 mi SSE 11.5 mph - N/A   Clear
10:35 PM 32.0 °F 22.5 °F 24.8 °F 75% 30.07 in 10.0 mi SSE 12.7 mph - N/A   Clear
10:55 PM 32.2 °F 21.8 °F 24.8 °F 74% 30.06 in 10.0 mi SSE 15.0 mph - N/A   Clear
11:15 PM 32.2 °F 21.8 °F 24.8 °F 74% 30.05 in 10.0 mi SSE 15.0 mph - N/A   Clear
11:35 PM 32.2 °F 21.4 °F 24.8 °F 74% 30.05 in 10.0 mi SSE 16.1 mph - N/A   Clear
11:55 PM 32.4 °F 20.9 °F 25.0 °F 74% 30.03 in 10.0 mi SSE 18.4 mph 21.9 mph N/A   Clear